Terminal Aerodrome Forecast
Issued by NWS Norman, OK

Home | Current Version | Previous Version | Text Only | Print | Product List | Glossary On
Versions: 1 2 3 4 5 6 7 8 9 10 11 12 13 14 15 16 17 18 19 20 21 22 23 24 25 26 27 28
000
FTUS44 KOUN 300520
TAFSPS
TAF
KSPS 300520Z 3006/3106 13005KT P6SM VCSH OVC070
      TEMPO 3006/3010 5SM -RA
     FM301000 15010KT P6SM VCSH OVC030
     FM301600 16013G20KT P6SM VCSH OVC035=

USA.gov is the U.S. government's official web portal to all federal, state and local government web resources and services.